createdAt,value
2022-10-25T00:01:35.657Z,100.00
2022-10-25T00:04:02.742Z,100.00
2022-10-25T00:06:29.665Z,100.00
2022-10-25T00:08:56.855Z,100.00
2022-10-25T00:11:30.210Z,100.00
2022-10-25T00:14:00.538Z,100.00
2022-10-25T00:16:35.439Z,100.00
2022-10-25T00:19:03.065Z,100.00
2022-10-25T00:21:29.932Z,100.00
2022-10-25T00:23:56.894Z,100.00
2022-10-25T00:26:23.922Z,100.00
2022-10-25T00:28:55.158Z,100.00
2022-10-25T00:31:23.162Z,100.00
2022-10-25T00:33:50.417Z,100.00
2022-10-25T00:36:21.428Z,100.00
2022-10-25T00:38:49.117Z,100.00
2022-10-25T00:41:23.380Z,100.00
2022-10-25T00:43:56.290Z,100.00
2022-10-25T00:46:24.991Z,100.00
2022-10-25T00:49:14.505Z,100.00
2022-10-25T00:51:54.228Z,100.00
2022-10-25T00:54:28.305Z,100.00
2022-10-25T00:56:59.836Z,100.00
2022-10-25T00:59:28.770Z,100.00
2022-10-25T01:01:56.642Z,100.00
2022-10-25T01:04:28.590Z,100.00
2022-10-25T01:06:55.700Z,100.00
2022-10-25T01:09:29.948Z,100.00
2022-10-25T01:11:57.135Z,100.00
2022-10-25T01:14:24.445Z,100.00
2022-10-25T01:17:14.205Z,100.00
2022-10-25T01:20:36.958Z,100.00
2022-10-25T01:23:39.464Z,100.00
2022-10-25T01:26:36.526Z,100.00
2022-10-25T01:29:15.416Z,100.00
2022-10-25T01:31:55.539Z,100.00
2022-10-25T01:34:33.316Z,100.00
2022-10-25T01:37:14.939Z,100.00
2022-10-25T01:39:49.382Z,100.00
2022-10-25T01:42:38.539Z,100.00
2022-10-25T01:45:05.313Z,100.00
2022-10-25T01:47:45.384Z,100.00
2022-10-25T01:50:22.142Z,100.00
2022-10-25T01:52:49.137Z,100.00
2022-10-25T01:55:17.459Z,100.00
2022-10-25T01:58:08.538Z,100.00
2022-10-25T02:00:59.354Z,100.00
2022-10-25T02:03:50.800Z,100.00
2022-10-25T02:07:00.839Z,100.00
2022-10-25T02:09:53.014Z,100.00
2022-10-25T02:12:30.400Z,100.00
2022-10-25T02:15:17.205Z,100.00
2022-10-25T02:18:03.539Z,100.00
2022-10-25T02:20:35.490Z,100.00
2022-10-25T02:23:05.969Z,100.00
2022-10-25T02:25:39.838Z,100.00
2022-10-25T02:28:11.449Z,100.00
2022-10-25T02:30:43.252Z,100.00
2022-10-25T02:33:12.090Z,100.00
2022-10-25T02:35:39.891Z,100.00
2022-10-25T02:38:07.003Z,100.00
2022-10-25T02:40:34.565Z,100.00
2022-10-25T02:43:01.536Z,100.00
2022-10-25T02:45:28.627Z,100.00
2022-10-25T02:47:55.525Z,100.00
2022-10-25T02:50:22.395Z,100.00
2022-10-25T02:52:49.563Z,100.00
2022-10-25T02:55:16.678Z,100.00
2022-10-25T02:57:43.583Z,100.00
2022-10-25T03:02:43.934Z,100.00
2022-10-25T03:05:10.949Z,100.00
2022-10-25T03:07:37.874Z,100.00
2022-10-25T03:10:05.337Z,100.00
2022-10-25T03:12:32.227Z,100.00
2022-10-25T03:14:59.113Z,100.00
2022-10-25T03:17:25.993Z,100.00
2022-10-25T03:19:52.886Z,100.00
2022-10-25T03:22:19.848Z,100.00
2022-10-25T03:24:46.694Z,100.00
2022-10-25T03:27:13.562Z,100.00
2022-10-25T03:29:40.464Z,100.00
2022-10-25T03:32:07.824Z,100.00
2022-10-25T03:34:34.777Z,100.00
2022-10-25T03:37:01.648Z,100.00
2022-10-25T03:39:28.557Z,100.00
2022-10-25T03:41:55.522Z,100.00
2022-10-25T03:44:22.555Z,100.00
2022-10-25T03:46:49.421Z,100.00
2022-10-25T03:49:16.414Z,100.00
2022-10-25T03:51:43.300Z,100.00
2022-10-25T03:54:10.198Z,100.00
2022-10-25T03:56:37.082Z,100.00
2022-10-25T03:59:04.022Z,100.00
2022-10-25T04:01:31.103Z,100.00
2022-10-25T04:03:58.086Z,100.00
2022-10-25T04:06:25.068Z,100.00
2022-10-25T04:08:52.008Z,100.00
2022-10-25T04:11:18.885Z,100.00
2022-10-25T04:13:45.818Z,100.00
2022-10-25T04:16:14.765Z,100.00
2022-10-25T04:18:45.177Z,100.00
2022-10-25T04:21:12.054Z,100.00
2022-10-25T04:23:39.016Z,100.00
2022-10-25T04:26:06.162Z,100.00
2022-10-25T04:28:33.034Z,100.00
2022-10-25T04:30:59.956Z,100.00
2022-10-25T04:33:26.882Z,100.00
2022-10-25T04:35:57.204Z,100.00
2022-10-25T04:38:24.410Z,100.00
2022-10-25T04:40:59.507Z,100.00
2022-10-25T04:43:28.631Z,100.00
2022-10-25T04:46:00.464Z,100.00
2022-10-25T04:48:27.415Z,100.00
2022-10-25T04:50:54.319Z,100.00
2022-10-25T04:53:21.225Z,100.00
2022-10-25T04:56:14.347Z,100.00
2022-10-25T04:58:41.549Z,100.00
2022-10-25T05:01:13.230Z,100.00
2022-10-25T05:03:41.292Z,100.00
2022-10-25T05:06:21.069Z,100.00
2022-10-25T05:08:50.143Z,100.00
2022-10-25T05:11:20.352Z,100.00
2022-10-25T05:13:47.878Z,100.00
2022-10-25T05:16:24.739Z,100.00
2022-10-25T05:18:55.389Z,100.00
2022-10-25T05:21:30.832Z,100.00
2022-10-25T05:24:01.831Z,100.00
2022-10-25T05:26:30.994Z,100.00
2022-10-25T05:28:58.176Z,100.00
2022-10-25T05:31:28.736Z,100.00
2022-10-25T05:34:00.920Z,100.00
2022-10-25T05:36:33.222Z,100.00
2022-10-25T05:39:01.253Z,100.00
2022-10-25T05:41:31.883Z,100.00
2022-10-25T05:44:01.795Z,100.00
2022-10-25T05:46:28.759Z,100.00
2022-10-25T05:48:55.670Z,100.00
2022-10-25T05:51:35.373Z,100.00
2022-10-25T05:54:14.705Z,100.00
2022-10-25T05:56:42.802Z,100.00
2022-10-25T05:59:12.516Z,100.00
2022-10-25T06:01:43.852Z,100.00
2022-10-25T06:04:11.814Z,100.00
2022-10-25T06:06:40.663Z,100.00
2022-10-25T06:09:08.763Z,100.00
2022-10-25T06:11:36.633Z,100.00
2022-10-25T06:14:04.098Z,100.00
2022-10-25T06:16:31.157Z,100.00
2022-10-25T06:18:58.281Z,100.00
2022-10-25T06:21:28.309Z,100.00
2022-10-25T06:23:56.370Z,100.00
2022-10-25T06:26:26.731Z,100.00
2022-10-25T06:28:57.124Z,100.00
2022-10-25T06:31:24.789Z,100.00
2022-10-25T06:33:51.887Z,100.00
2022-10-25T06:36:22.503Z,100.00
2022-10-25T06:38:50.602Z,100.00
2022-10-25T06:41:24.293Z,100.00
2022-10-25T06:43:51.982Z,100.00
2022-10-25T06:46:33.845Z,100.00
2022-10-25T06:49:05.428Z,100.00
2022-10-25T06:51:34.379Z,100.00
2022-10-25T06:54:07.928Z,100.00
2022-10-25T06:56:36.532Z,100.00
2022-10-25T06:59:06.842Z,100.00
2022-10-25T07:01:33.852Z,100.00
2022-10-25T07:04:03.552Z,100.00
2022-10-25T07:06:35.817Z,100.00
2022-10-25T07:09:05.406Z,100.00
2022-10-25T07:11:33.592Z,100.00
2022-10-25T07:14:01.726Z,100.00
2022-10-25T07:16:29.199Z,100.00
2022-10-25T07:19:03.455Z,100.00
2022-10-25T07:21:32.036Z,100.00
2022-10-25T07:23:59.014Z,100.00
2022-10-25T07:26:35.587Z,100.00
2022-10-25T07:29:04.389Z,100.00
2022-10-25T07:31:41.576Z,100.00
2022-10-25T07:34:13.879Z,100.00
2022-10-25T07:36:42.295Z,100.00
2022-10-25T07:39:09.436Z,100.00
2022-10-25T07:41:36.403Z,100.00
2022-10-25T07:44:04.468Z,100.00
2022-10-25T07:46:31.439Z,100.00
2022-10-25T07:48:58.360Z,100.00
2022-10-25T07:51:27.380Z,100.00
2022-10-25T07:53:59.424Z,100.00
2022-10-25T07:56:27.378Z,100.00
2022-10-25T07:58:55.320Z,100.00
2022-10-25T08:01:27.038Z,100.00
2022-10-25T08:03:55.451Z,100.00
2022-10-25T08:06:25.629Z,100.00
2022-10-25T08:08:53.188Z,100.00
2022-10-25T08:11:21.362Z,100.00
2022-10-25T08:13:50.355Z,100.00
2022-10-25T08:16:17.619Z,100.00
2022-10-25T08:18:44.679Z,100.00
2022-10-25T08:21:12.888Z,100.00
2022-10-25T08:23:41.028Z,100.00
2022-10-25T08:26:11.984Z,100.00
2022-10-25T08:28:38.879Z,100.00
2022-10-25T08:31:06.072Z,100.00
2022-10-25T08:33:33.835Z,100.00
2022-10-25T08:36:04.532Z,100.00
2022-10-25T08:38:31.493Z,100.00
2022-10-25T08:41:41.921Z,100.00
2022-10-25T08:44:36.987Z,100.00
2022-10-25T08:47:27.114Z,100.00
2022-10-25T08:50:27.694Z,100.00
2022-10-25T08:53:02.491Z,100.00
2022-10-25T08:55:41.725Z,100.00
2022-10-25T08:58:38.458Z,99.25
2022-10-25T09:01:15.708Z,98.89
2022-10-25T09:03:42.802Z,98.66
2022-10-25T09:06:36.230Z,98.33
2022-10-25T09:09:39.442Z,96.15
2022-10-25T09:12:09.114Z,95.63
2022-10-25T09:14:59.998Z,94.20
2022-10-25T09:17:52.448Z,94.63
2022-10-25T09:20:25.800Z,92.84
2022-10-25T09:23:29.984Z,92.86
2022-10-25T09:26:14.176Z,92.39
2022-10-25T09:28:55.279Z,93.93
2022-10-25T09:31:28.064Z,90.64
2022-10-25T09:34:04.535Z,92.35
2022-10-25T09:36:48.116Z,88.88
2022-10-25T09:39:38.390Z,90.78
2022-10-25T09:42:27.871Z,88.87
2022-10-25T09:44:59.804Z,88.32
2022-10-25T09:48:11.090Z,88.18
2022-10-25T09:50:51.080Z,87.06
2022-10-25T09:53:24.134Z,86.94
2022-10-25T09:55:58.129Z,86.47
2022-10-25T09:58:30.363Z,87.44
2022-10-25T10:01:12.795Z,86.18
2022-10-25T10:03:41.306Z,86.72
2022-10-25T10:06:33.564Z,85.90
2022-10-25T10:09:06.190Z,86.62
2022-10-25T10:11:36.712Z,84.41
2022-10-25T10:14:10.839Z,86.09
2022-10-25T10:16:46.604Z,85.16
2022-10-25T10:19:27.144Z,83.53
2022-10-25T10:21:57.575Z,84.15
2022-10-25T10:24:38.144Z,84.57
2022-10-25T10:27:12.301Z,83.24
2022-10-25T10:29:54.382Z,84.91
2022-10-25T10:32:35.321Z,83.14
2022-10-25T10:35:08.212Z,83.35
2022-10-25T10:37:35.172Z,82.55
2022-10-25T10:40:24.586Z,83.43
2022-10-25T10:42:52.181Z,81.59
2022-10-25T10:45:20.801Z,82.23
2022-10-25T10:47:51.686Z,79.00
2022-10-25T10:50:28.630Z,81.59
2022-10-25T10:53:22.022Z,81.57
2022-10-25T10:55:54.538Z,81.53
2022-10-25T10:58:36.749Z,83.10
2022-10-25T11:01:19.143Z,79.28
2022-10-25T11:03:59.265Z,79.24
2022-10-25T11:06:35.446Z,79.48
2022-10-25T11:09:12.763Z,80.71
2022-10-25T11:11:40.381Z,81.82
2022-10-25T11:14:16.492Z,81.31
2022-10-25T11:17:17.023Z,80.29
2022-10-25T11:20:20.640Z,79.86
2022-10-25T11:23:21.416Z,80.38
2022-10-25T11:26:18.942Z,82.32
2022-10-25T11:29:15.490Z,81.86
2022-10-25T11:32:33.254Z,79.93
2022-10-25T11:35:38.277Z,80.07
2022-10-25T11:38:41.334Z,80.30
2022-10-25T11:41:16.986Z,79.84
2022-10-25T11:44:06.484Z,80.16
2022-10-25T11:47:28.395Z,81.70
2022-10-25T11:50:37.699Z,82.38
2022-10-25T11:53:25.004Z,83.32
2022-10-25T11:56:06.294Z,80.52
2022-10-25T11:59:03.630Z,82.70
2022-10-25T12:01:30.610Z,81.15
2022-10-25T12:04:47.790Z,81.26
2022-10-25T12:07:24.591Z,82.83
2022-10-25T12:10:27.653Z,81.72
2022-10-25T12:13:34.489Z,82.51
2022-10-25T12:16:05.617Z,82.58
2022-10-25T12:18:39.466Z,83.48
2022-10-25T12:21:09.324Z,82.36
2022-10-25T12:23:49.924Z,82.77
2022-10-25T12:26:36.987Z,82.52
2022-10-25T12:29:11.116Z,80.32
2022-10-25T12:31:44.711Z,80.04
2022-10-25T12:34:21.086Z,79.80
2022-10-25T12:36:54.331Z,80.64
2022-10-25T12:39:35.983Z,80.91
2022-10-25T12:42:21.348Z,83.43
2022-10-25T12:45:19.070Z,80.63
2022-10-25T12:48:01.508Z,81.46
2022-10-25T12:51:21.659Z,83.31
2022-10-25T12:54:03.662Z,81.62
2022-10-25T12:56:48.210Z,82.13
2022-10-25T13:00:08.329Z,80.31
2022-10-25T13:03:21.932Z,80.73
2022-10-25T13:06:30.266Z,81.76
2022-10-25T13:09:08.240Z,81.30
2022-10-25T13:11:59.625Z,80.46
2022-10-25T13:14:34.023Z,79.47
2022-10-25T13:17:42.652Z,78.33
2022-10-25T13:22:50.635Z,79.43
2022-10-25T13:25:57.888Z,79.65
2022-10-25T13:28:35.277Z,80.15
2022-10-25T13:31:35.090Z,80.34
2022-10-25T13:34:14.141Z,80.58
2022-10-25T13:36:59.242Z,79.99
2022-10-25T13:39:38.249Z,79.89
2022-10-25T13:42:09.428Z,78.78
2022-10-25T13:44:39.602Z,78.94
2022-10-25T13:47:29.162Z,79.91
2022-10-25T13:49:56.292Z,80.39
2022-10-25T13:52:32.176Z,80.59
2022-10-25T13:54:59.353Z,79.33
2022-10-25T13:57:59.241Z,78.89
2022-10-25T14:00:33.946Z,80.18
2022-10-25T14:03:09.984Z,80.96
2022-10-25T14:05:55.490Z,79.56
2022-10-25T14:08:44.192Z,80.04
2022-10-25T14:11:23.915Z,79.12
2022-10-25T14:14:14.348Z,79.28
2022-10-25T14:16:55.766Z,78.00
2022-10-25T14:19:48.526Z,77.60
2022-10-25T14:22:36.851Z,77.81
2022-10-25T14:25:42.784Z,77.21
2022-10-25T14:28:20.438Z,78.55
2022-10-25T14:30:50.013Z,76.74
2022-10-25T14:33:37.976Z,77.17
2022-10-25T14:36:16.774Z,78.32
2022-10-25T14:38:56.900Z,77.60
2022-10-25T14:41:28.062Z,77.15
2022-10-25T14:43:55.911Z,76.01
2022-10-25T14:46:26.284Z,77.06
2022-10-25T14:49:01.591Z,78.86
2022-10-25T14:51:36.474Z,79.56
2022-10-25T14:54:14.702Z,77.85
2022-10-25T14:56:51.096Z,77.53
2022-10-25T14:59:50.670Z,78.93
2022-10-25T15:02:39.794Z,79.24
2022-10-25T15:05:07.762Z,79.39
2022-10-25T15:07:44.627Z,78.04
2022-10-25T15:10:30.294Z,77.79
2022-10-25T15:13:05.330Z,78.78
2022-10-25T15:15:42.264Z,78.71
2022-10-25T15:18:29.238Z,79.75
2022-10-25T15:21:14.467Z,79.77
2022-10-25T15:23:44.155Z,81.32
2022-10-25T15:26:33.555Z,81.79
2022-10-25T15:29:02.257Z,82.02
2022-10-25T15:31:31.857Z,82.33
2022-10-25T15:34:06.409Z,82.65
2022-10-25T15:36:34.138Z,82.56
2022-10-25T15:39:23.141Z,83.21
2022-10-25T15:41:51.150Z,84.42
2022-10-25T15:44:18.023Z,84.64
2022-10-25T15:46:47.459Z,84.82
2022-10-25T15:49:14.918Z,85.20
2022-10-25T15:51:44.648Z,85.47
2022-10-25T15:54:22.384Z,86.09
2022-10-25T15:56:50.384Z,87.96
2022-10-25T15:59:17.746Z,90.49
2022-10-25T16:01:47.887Z,91.27
2022-10-25T16:04:18.122Z,93.42
2022-10-25T16:06:46.494Z,94.25
2022-10-25T16:09:13.447Z,95.46
2022-10-25T16:11:46.927Z,98.39
2022-10-25T16:14:27.287Z,100.00
2022-10-25T16:16:54.366Z,100.00
2022-10-25T16:19:26.278Z,100.00
2022-10-25T16:21:53.269Z,100.00
2022-10-25T16:24:20.211Z,100.00
2022-10-25T16:26:48.835Z,100.00
2022-10-25T16:29:26.046Z,100.00
2022-10-25T16:31:54.035Z,100.00
2022-10-25T16:34:21.279Z,100.00
2022-10-25T16:36:50.336Z,100.00
2022-10-25T16:39:17.367Z,100.00
2022-10-25T16:41:46.594Z,100.00
2022-10-25T16:44:17.287Z,100.00
2022-10-25T16:46:44.827Z,100.00
2022-10-25T16:49:12.110Z,100.00
2022-10-25T16:51:40.031Z,100.00
2022-10-25T16:54:07.562Z,100.00
2022-10-25T16:56:34.649Z,100.00
2022-10-25T16:59:01.617Z,100.00
2022-10-25T17:01:33.586Z,100.00
2022-10-25T17:04:01.224Z,100.00
2022-10-25T17:06:40.953Z,100.00
2022-10-25T17:09:09.275Z,100.00
2022-10-25T17:11:37.134Z,100.00
2022-10-25T17:14:04.465Z,100.00
2022-10-25T17:16:31.735Z,100.00
2022-10-25T17:18:58.741Z,100.00
2022-10-25T17:21:26.068Z,100.00
2022-10-25T17:23:52.947Z,100.00
2022-10-25T17:26:20.219Z,100.00
2022-10-25T17:28:47.185Z,100.00
2022-10-25T17:31:14.960Z,100.00
2022-10-25T17:33:42.624Z,100.00
2022-10-25T17:36:13.667Z,100.00
2022-10-25T17:38:41.726Z,100.00
2022-10-25T17:41:09.854Z,100.00
2022-10-25T17:43:39.175Z,100.00
2022-10-25T17:46:10.731Z,100.00
2022-10-25T17:48:37.667Z,100.00
2022-10-25T17:51:07.907Z,100.00
2022-10-25T17:53:35.388Z,100.00
2022-10-25T17:56:19.126Z,100.00
2022-10-25T17:58:48.507Z,100.00
2022-10-25T18:01:20.437Z,100.00
2022-10-25T18:03:47.661Z,100.00
2022-10-25T18:06:18.478Z,100.00
2022-10-25T18:08:48.234Z,100.00
2022-10-25T18:11:19.387Z,100.00
2022-10-25T18:13:46.398Z,100.00
2022-10-25T18:16:15.179Z,100.00
2022-10-25T18:18:42.048Z,100.00
2022-10-25T18:21:12.728Z,100.00
2022-10-25T18:23:40.341Z,100.00
2022-10-25T18:26:10.870Z,100.00
2022-10-25T18:28:38.398Z,100.00
2022-10-25T18:31:11.741Z,100.00
2022-10-25T18:33:42.438Z,100.00
2022-10-25T18:36:19.427Z,100.00
2022-10-25T18:38:47.891Z,100.00
2022-10-25T18:41:28.151Z,100.00
2022-10-25T18:43:55.893Z,100.00
2022-10-25T18:46:24.615Z,100.00
2022-10-25T18:48:53.426Z,100.00
2022-10-25T18:51:23.197Z,100.00
2022-10-25T18:53:58.281Z,100.00
2022-10-25T18:56:26.750Z,100.00
2022-10-25T18:58:56.802Z,100.00
2022-10-25T19:01:26.033Z,100.00
2022-10-25T19:03:53.153Z,100.00
2022-10-25T19:06:20.247Z,100.00
2022-10-25T19:08:49.153Z,100.00
2022-10-25T19:11:16.876Z,100.00
2022-10-25T19:13:47.508Z,100.00
2022-10-25T19:16:17.375Z,100.00
2022-10-25T19:18:44.380Z,100.00
2022-10-25T19:21:14.452Z,100.00
2022-10-25T19:23:42.735Z,100.00
2022-10-25T19:26:12.796Z,100.00
2022-10-25T19:28:39.974Z,100.00
2022-10-25T19:31:08.701Z,100.00
2022-10-25T19:33:36.014Z,100.00
2022-10-25T19:36:05.394Z,100.00
2022-10-25T19:38:32.322Z,100.00
2022-10-25T19:41:01.510Z,100.00
2022-10-25T19:43:28.677Z,100.00
2022-10-25T19:45:58.147Z,100.00
2022-10-25T19:48:25.739Z,100.00
2022-10-25T19:50:52.915Z,100.00
2022-10-25T19:53:20.552Z,100.00
2022-10-25T19:56:09.314Z,100.00
2022-10-25T19:58:36.771Z,100.00
2022-10-25T20:01:05.872Z,100.00
2022-10-25T20:03:33.587Z,100.00
2022-10-25T20:06:05.944Z,100.00
2022-10-25T20:08:38.675Z,100.00
2022-10-25T20:11:06.900Z,100.00
2022-10-25T20:13:33.884Z,100.00
2022-10-25T20:16:00.992Z,100.00
2022-10-25T20:18:35.238Z,100.00
2022-10-25T20:21:12.302Z,100.00
2022-10-25T20:23:44.492Z,100.00
2022-10-25T20:26:18.599Z,100.00
2022-10-25T20:28:46.248Z,100.00
2022-10-25T20:31:14.493Z,100.00
2022-10-25T20:33:42.194Z,100.00
2022-10-25T20:36:12.826Z,100.00
2022-10-25T20:38:40.243Z,100.00
2022-10-25T20:41:10.602Z,100.00
2022-10-25T20:43:38.530Z,100.00
2022-10-25T20:46:06.819Z,100.00
2022-10-25T20:48:34.107Z,100.00
2022-10-25T20:51:04.182Z,100.00
2022-10-25T20:53:35.766Z,100.00
2022-10-25T20:56:03.150Z,100.00
2022-10-25T20:58:30.155Z,100.00
2022-10-25T21:00:57.685Z,100.00
2022-10-25T21:03:30.443Z,100.00
2022-10-25T21:06:00.552Z,100.00
2022-10-25T21:08:27.834Z,100.00
2022-10-25T21:11:03.970Z,100.00
2022-10-25T21:13:33.612Z,100.00
2022-10-25T21:16:09.951Z,100.00
2022-10-25T21:18:37.828Z,100.00
2022-10-25T21:21:10.650Z,100.00
2022-10-25T21:23:37.606Z,100.00
2022-10-25T21:26:07.309Z,100.00
2022-10-25T21:28:40.197Z,100.00
2022-10-25T21:31:11.973Z,100.00
2022-10-25T21:33:39.143Z,100.00
2022-10-25T21:36:12.424Z,100.00
2022-10-25T21:38:40.003Z,100.00
2022-10-25T21:41:14.659Z,100.00
2022-10-25T21:43:45.639Z,100.00
2022-10-25T21:46:14.218Z,100.00
2022-10-25T21:48:42.055Z,100.00
2022-10-25T21:51:09.083Z,100.00
2022-10-25T21:53:36.777Z,100.00
2022-10-25T21:56:13.621Z,100.00
2022-10-25T21:58:44.188Z,100.00
2022-10-25T22:01:17.816Z,100.00
2022-10-25T22:03:44.846Z,100.00
2022-10-25T22:06:15.400Z,100.00
2022-10-25T22:08:43.241Z,100.00
2022-10-25T22:11:18.675Z,100.00
2022-10-25T22:13:46.696Z,100.00
2022-10-25T22:16:18.839Z,100.00
2022-10-25T22:19:04.036Z,100.00
2022-10-25T22:21:37.677Z,100.00
2022-10-25T22:24:08.408Z,100.00
2022-10-25T22:26:37.045Z,100.00
2022-10-25T22:29:04.938Z,100.00
2022-10-25T22:31:32.564Z,100.00
2022-10-25T22:34:02.587Z,100.00
2022-10-25T22:36:32.953Z,100.00
2022-10-25T22:39:00.581Z,100.00
2022-10-25T22:41:29.480Z,100.00
2022-10-25T22:43:56.667Z,100.00
2022-10-25T22:46:29.775Z,100.00
2022-10-25T22:48:58.936Z,100.00
2022-10-25T22:51:28.542Z,100.00
2022-10-25T22:53:56.093Z,100.00
2022-10-25T22:56:26.196Z,100.00
2022-10-25T22:58:56.183Z,100.00
2022-10-25T23:01:29.532Z,100.00
2022-10-25T23:03:58.594Z,100.00
2022-10-25T23:06:28.745Z,100.00
2022-10-25T23:08:58.063Z,100.00
2022-10-25T23:11:28.190Z,100.00
2022-10-25T23:13:56.876Z,100.00
2022-10-25T23:16:24.634Z,100.00
2022-10-25T23:18:52.171Z,100.00
2022-10-25T23:21:23.302Z,100.00
2022-10-25T23:23:52.400Z,100.00
2022-10-25T23:26:32.058Z,100.00
2022-10-25T23:29:00.161Z,100.00
2022-10-25T23:31:27.813Z,100.00
2022-10-25T23:33:57.606Z,100.00
2022-10-25T23:36:28.490Z,100.00
2022-10-25T23:38:56.462Z,100.00
2022-10-25T23:41:24.080Z,100.00
2022-10-25T23:43:51.235Z,100.00
2022-10-25T23:46:18.275Z,100.00
2022-10-25T23:48:45.294Z,100.00
2022-10-25T23:51:16.081Z,100.00
2022-10-25T23:53:43.528Z,100.00
2022-10-25T23:56:13.363Z,100.00
2022-10-25T23:58:40.594Z,100.00
